Latest Coastal Weather Observations for Coolangatta

IDQ60701

Issued at 5:31 pm EST Friday 6 March 2015 (issued every 10 minutes, with the page automatically refreshed every 10 minutes)

About coastal observations | Map of coastal stations | Coastal observations for QLD | Marine services | Other Formats
Station Details ID: 040717 Name: COOLANGATTA Lat: -28.17 Lon: 153.51 Height: 4.0 m
Data from the previous 72 hours. | See also: Recent months at Coolangatta
Date/Time
EST
Temp

°C
Wind Pressure Rain
since 9am
mm
Weather Cloud Vis
km
Sea
Height
m
Swell
Dir
 
Speed
knots
Gust
knots
hPa Trend Height
m
Period
s
Dir
06/05:30pm 25.2 NNE 9 11 1006.5 - 0.0 - Partly cloudy 10 - - - -
06/05:00pm 25.5 NNE 8 11 1006.7 - 0.0 - Partly cloudy 10 - - - -
06/04:30pm 25.7 NNE 9 11 1006.5 - 0.0 - Partly cloudy 10 - - - -
06/04:00pm 25.8 NNE 11 13 1006.1 - 0.0 - Cloudy 10 - - - -
06/03:30pm 26.0 NNE 8 11 1006.1 - 0.0 - Partly cloudy 10 - - - -
06/03:00pm 25.8 NNE 7 11 1006.5 - 0.0 - Mostly cloudy 10 - - - -
06/02:30pm 25.9 NE 7 11 1006.8 - 0.0 - Partly cloudy 10 - - - -
06/02:00pm 26.1 NE 7 11 1007.3 - 0.0 - Partly cloudy 10 - - - -
06/01:30pm 26.4 NE 6 10 1008.2 - 0.0 - Partly cloudy 10 - - - -
06/01:00pm 27.3 ENE 7 9 1008.5 - 0.0 - Partly cloudy 10 - - - -
06/12:30pm 25.7 NE 7 9 1009.1 - 0.0 - Partly cloudy 10 - - - -
06/12:00pm 26.4 E 5 10 1009.4 - 0.0 - Cloudy 10 - - - -
06/11:30am 25.1 SSE 4 9 1009.9 - 0.0 - Partly cloudy 10 - - - -
06/11:00am 25.6 SSE 9 11 1010.1 - 0.0 - Cloudy 10 - - - -
06/10:30am 25.2 S 6 11 1010.3 - 0.0 - Partly cloudy 10 - - - -
06/10:00am 25.7 SSE 6 10 1010.4 - 0.0 - Partly cloudy 10 - - - -
06/09:30am 24.7 S 6 8 1010.5 - 0.0 - Partly cloudy 10 - - - -
06/09:00am 24.1 SSW 5 7 1010.2 - 0.0 - Cloudy 10 - - - -
06/08:30am 23.7 SW 5 7 1010.0 - 0.0 - Partly cloudy 10 - - - -
06/08:00am 23.4 SSW 5 6 1009.8 - 0.0 - Partly cloudy 10 - - - -
06/07:30am 23.4 SSW 4 5 1009.5 - 0.0 - Cloudy 10 - - - -
06/07:00am 22.9 SSW 4 5 1009.4 - 0.0 - Partly cloudy 10 - - - -
06/06:30am 22.6 SW 5 8 1009.1 - 0.0 - Partly cloudy 10 - - - -
06/06:00am 22.8 SW 6 8 1008.9 - 0.0 - Cloudy 10 - - - -
06/05:30am 22.7 SSW 5 7 1008.8 - 0.0 - Partly cloudy 10 - - - -
06/05:00am 22.7 S 4 6 1008.9 - 0.0 - Partly cloudy 10 - - - -
06/04:30am 23.2 S 5 8 1008.7 - 0.0 - Partly cloudy 10 - - - -
06/04:00am 23.8 SSE 9 16 1008.6 - 0.0 - Partly cloudy 10 - - - -
06/03:30am 23.9 SE 12 18 1008.6 - 0.0 - Partly cloudy 10 - - - -
06/03:00am 23.9 SE 14 20 1008.9 - 0.0 - Cloudy 10 - - - -
06/02:30am 24.1 SE 16 23 1009.1 - 0.0 - Partly cloudy 9 - - - -
06/02:00am 24.1 SSE 11 18 1009.1 - 0.0 - Partly cloudy 9 - - - -
06/01:30am 24.2 SSE 13 23 1009.2 - 0.0 - Partly cloudy 10 - - - -
06/01:00am 24.4 SSE 14 23 1009.3 - 0.0 - Partly cloudy 10 - - - -
06/12:30am 24.6 SSE 15 23 1009.5 - 0.0 - Partly cloudy 10 - - - -
06/12:00am 24.7 SSE 17 24 1009.4 - 0.0 - Cloudy 9 - - - -
 
Date/Time
EST
Temp

°C
Wind Pressure Rain
since 9am
mm
Weather Cloud Vis
km
Sea
Height
m
Swell
Dir
 
Speed
knots
Gust
knots
hPa Trend Height
m
Period
s
Dir
05/11:30pm 25.0 SSE 17 25 1009.3 - 0.0 - Cloudy 10 - - - -
05/11:15pm 25.0 SSE 17 27 1009.1 - 0.0 - Cloudy 10 - - - -
05/11:00pm 25.3 SSE 18 24 1009.1 - 0.0 - Cloudy 10 - - - -
05/10:36pm 25.8 SSE 17 28 1008.9 - 0.0 - Partly cloudy 10 - - - -
05/10:30pm 25.9 SSE 15 24 1009.0 - 0.0 - Partly cloudy 10 - - - -
05/10:19pm 26.2 SSE 15 25 1008.9 - 0.0 - Partly cloudy 10 - - - -
05/10:00pm 26.3 SSE 16 24 1008.8 - 0.0 - Partly cloudy 10 - - - -
05/09:30pm 26.8 SSE 14 18 1008.6 - 0.0 - Partly cloudy 10 - - - -
05/09:00pm 27.1 SSE 15 22 1008.1 - 0.0 - Cloudy 10 - - - -
05/08:30pm 27.4 SSE 15 21 1007.6 - 0.0 - Partly cloudy 10 - - - -
05/08:00pm 27.7 SSE 11 19 1007.0 - 0.0 - - 10 - - - -
05/07:30pm 27.6 SE 11 17 1005.9 - 0.0 - Partly cloudy 10 - - - -
05/07:00pm 27.4 SE 7 8 1005.0 - 0.0 - Partly cloudy 10 - - - -
05/06:30pm 27.4 NNE 8 9 1003.6 - 0.0 - - 10 - - - -
05/06:00pm 27.7 N 8 10 1003.2 - 0.0 - Mostly clear 10 - - - -
05/05:30pm 28.2 NNW 10 13 1002.7 - 0.0 - - 10 - - - -
05/05:00pm 28.7 N 14 19 1002.3 - 0.0 - - 10 - - - -
05/04:30pm 29.5 N 13 18 1002.2 - 0.0 - - 10 - - - -
05/04:00pm 30.2 N 15 20 1002.0 - 0.0 - - 10 - - - -
05/03:30pm 30.3 N 13 17 1002.0 - 0.0 - - 10 - - - -
05/03:00pm 30.8 N 15 20 1002.1 - 0.0 - Mostly cloudy 10 - - - -
05/02:30pm 30.3 N 15 21 1002.4 - 0.0 - - 10 - - - -
05/02:00pm 31.2 N 17 21 1002.8 - 0.0 - - 10 - - - -
05/01:30pm 32.8 N 16 21 1003.3 - 0.0 - - 10 - - - -
05/01:00pm 33.4 N 14 17 1003.9 - 0.0 - - 10 - - - -
05/12:30pm 33.4 N 13 18 1004.4 - 0.0 - - 10 - - - -
05/12:00pm 32.9 NNW 13 19 1004.6 - 0.0 - - 10 - - - -
05/11:30am 32.8 NW 14 19 1005.1 - 0.0 - - 10 - - - -
05/11:00am 32.2 NNW 14 19 1005.4 - 0.0 - - 10 - - - -
05/10:30am 29.3 N 19 24 1005.7 - 0.0 - - 10 - - - -
05/10:00am 28.8 N 17 20 1006.5 - 0.0 - - 10 - - - -
05/09:30am 28.8 NNW 16 21 1006.7 - 0.0 - - 10 - - - -
05/09:00am 28.8 NNW 11 15 1007.2 - 0.0 - - 10 - - - -
05/08:30am 27.6 N 12 17 1007.3 - 0.0 - - 10 - - - -
05/08:00am 27.1 NW 9 14 1007.6 - 0.0 - - 10 - - - -
05/07:30am 25.9 NNW 11 15 1007.5 - 0.0 - - 10 - - - -
05/07:00am 25.1 NNW 11 16 1007.5 - 0.0 - - 10 - - - -
05/06:30am 24.3 NNW 9 14 1007.6 - 0.0 - - 10 - - - -
05/06:00am 23.7 NNW 10 15 1007.6 - 0.0 - - 10 - - - -
05/05:30am 23.5 NNW 11 16 1007.4 - 0.0 - - 10 - - - -
05/05:00am 23.6 NNW 9 15 1007.4 - 0.0 - - 10 - - - -
05/04:30am 23.6 NNW 8 14 1007.4 - 0.0 - - 10 - - - -
05/04:00am 23.6 NNW 10 15 1007.6 - 0.0 - - 10 - - - -
05/03:30am 23.5 NW 8 12 1007.7 - 0.0 - - 10 - - - -
05/03:00am 23.5 NW 7 11 1007.9 - 0.0 - - 10 - - - -
05/02:30am 23.6 NW 9 11 1008.3 - 0.0 - Partly cloudy 10 - - - -
05/02:00am 23.5 NW 10 14 1008.7 - 0.0 - - 10 - - - -
05/01:30am 23.5 NW 9 13 1009.1 - 0.0 - - 10 - - - -
05/01:00am 23.7 NW 8 12 1009.6 - 0.0 - - 10 - - - -
05/12:30am 23.8 NW 9 11 1010.1 - 0.0 - - 10 - - - -
05/12:00am 23.8 NW 8 12 1010.4 - 0.0 - - 10 - - - -
 
Date/Time
EST
Temp

°C
Wind Pressure Rain
since 9am
mm
Weather Cloud Vis
km
Sea
Height
m
Swell
Dir
 
Speed
knots
Gust
knots
hPa Trend Height
m
Period
s
Dir
04/11:30pm 24.2 NW 9 13 1010.8 - 0.0 - - 10 - - - -
04/11:00pm 25.0 NNW 10 15 1011.1 - 0.0 - - 10 - - - -
04/10:30pm 25.0 NNW 11 14 1011.4 - 0.0 - - 10 - - - -
04/10:00pm 25.0 NNW 10 16 1011.6 - 0.0 - - 10 - - - -
04/09:30pm 25.2 N 12 15 1011.8 - 0.0 - - 10 - - - -
04/09:00pm 25.2 N 11 17 1012.0 - 0.0 - - 10 - - - -
04/08:30pm 25.2 N 12 15 1012.0 - 0.0 - - 10 - - - -
04/08:00pm 25.3 N 11 14 1012.0 - 0.0 - - 10 - - - -
04/07:30pm 25.4 N 11 15 1011.7 - 0.0 - - 10 - - - -
04/07:00pm 25.3 N 11 14 1011.5 - 0.0 - - 10 - - - -
04/06:30pm 25.3 N 10 14 1011.1 - 0.0 - - 10 - - - -
04/06:00pm 25.7 N 11 14 1011.0 - 0.0 - - 10 - - - -
04/05:30pm 26.1 N 11 13 1011.0 - 0.0 - - 10 - - - -
04/05:00pm 26.7 N 11 14 1010.9 - 0.0 - - 10 - - - -
04/04:30pm 26.9 N 11 14 1010.9 - 0.0 - - 10 - - - -
04/04:00pm 27.2 NNE 11 15 1010.9 - 0.0 - - 10 - - - -
04/03:30pm 27.6 NNE 12 15 1011.0 - 0.0 - - 10 - - - -
04/03:00pm 28.0 NNE 11 14 1011.2 - 0.0 - - 10 - - - -
04/02:30pm 27.5 NNE 10 13 1011.5 - 0.0 - - 10 - - - -
04/02:00pm 27.6 NNE 11 14 1011.9 - 0.0 - - 10 - - - -
04/01:30pm 27.9 NNE 11 13 1012.3 - 0.0 - - 10 - - - -
04/01:00pm 27.6 NNE 10 13 1012.8 - 0.0 - - 10 - - - -
04/12:30pm 27.0 NNE 11 14 1013.0 - 0.0 - - 10 - - - -
04/12:00pm 27.4 NNE 10 13 1013.5 - 0.0 - - 10 - - - -
04/11:30am 27.2 NNE 10 12 1013.9 - 0.0 - - 10 - - - -
04/11:00am 26.9 NNE 9 11 1014.1 - 0.0 - - 10 - - - -
04/10:30am 27.0 NNE 9 11 1014.5 - 0.0 - - 10 - - - -
04/10:00am 26.6 N 9 12 1014.7 - 0.0 - - 10 - - - -
04/09:30am 26.8 NNE 8 11 1014.7 - 0.0 - - 10 - - - -
04/09:00am 26.6 N 8 10 1014.7 - 0.0 - Partly cloudy 10 - - - -
04/08:30am 26.0 NW 4 7 1014.6 - 0.0 - Partly cloudy 10 - - - -
04/08:00am 25.3 WSW 4 6 1014.5 - 0.0 - - 10 - - - -
04/07:30am 24.0 SW 4 5 1014.2 - 0.0 - - 10 - - - -
04/07:00am 22.6 SW 4 5 1014.1 - 0.0 - - 10 - - - -
04/06:30am 21.6 SW 2 4 1013.6 - 0.0 - Partly cloudy 10 - - - -
04/06:00am 20.6 SSW 3 4 1013.6 - 0.0 - Mostly clear 10 - - - -
04/05:30am 20.5 S 1 4 1013.4 - 0.0 - Partly cloudy 10 - - - -
04/05:00am 20.3 SSW 1 4 1013.1 - 0.0 - Cloudy 10 - - - -
04/04:30am 20.3 CALM 0 0 1012.9 - 0.0 - Cloudy 10 - - - -
04/04:00am 20.3 SW 1 3 1012.7 - 0.0 - Partly cloudy 10 - - - -
04/03:30am 20.4 SSW 2 3 1012.8 - 0.0 - - 10 - - - -
04/03:00am 20.4 SSW 3 4 1013.0 - 0.0 - - 10 - - - -
04/02:30am 21.2 WSW 1 3 1013.2 - 0.0 - Partly cloudy 10 - - - -
04/02:00am 21.7 WSW 3 4 1013.5 - 0.0 - Partly cloudy 10 - - - -
04/01:30am 21.7 WSW 4 5 1014.1 - 0.0 - Partly cloudy 10 - - - -
04/01:00am 22.0 CALM 0 0 1014.5 - 0.0 - Partly cloudy 10 - - - -
04/12:30am 22.1 SW 3 5 1014.9 - 0.0 - Cloudy 10 - - - -
04/12:00am 22.2 SW 3 4 1015.4 - 0.0 - Mostly cloudy 10 - - - -
 
Date/Time
EST
Temp

°C
Wind Pressure Rain
since 9am
mm
Weather Cloud Vis
km
Sea
Height
m
Swell
Dir
 
Speed
knots
Gust
knots
hPa Trend Height
m
Period
s
Dir
03/11:30pm 22.5 SW 4 5 1015.5 - 0.0 - Cloudy 10 - - - -
03/11:00pm 22.6 SW 3 4 1015.8 - 0.0 - Cloudy 10 - - - -
03/10:30pm 22.5 SW 3 4 1015.7 - 0.0 - Cloudy 10 - - - -
03/10:00pm 22.3 SW 5 6 1015.9 - 0.0 - Cloudy 10 - - - -
03/09:30pm 22.1 WSW 4 5 1015.9 - 0.0 - Partly cloudy 10 - - - -
03/09:00pm 21.7 WSW 4 5 1015.7 - 0.0 - Mostly clear 10 - - - -
03/08:30pm 21.9 WSW 5 6 1015.5 - 0.0 - - 10 - - - -
03/08:00pm 22.3 WSW 3 4 1015.2 - 0.0 - Partly cloudy 10 - - - -
03/07:30pm 22.8 CALM 0 0 1014.9 - 0.0 - - 10 - - - -
03/07:00pm 23.5 SE 5 6 1014.6 - 0.0 - - 10 - - - -
03/06:30pm 24.2 SE 6 8 1014.3 - 0.0 - Partly cloudy 10 - - - -
03/06:00pm 25.0 ESE 8 11 1014.1 - 0.0 - Mostly clear 10 - - - -

Other Formats:

Comma delimited format used in spreadsheet applications
http://www.bom.gov.au/fwo/IDQ60701/IDQ60701.94592.axf

JavaScript Object Notation format (JSON) in row-major order
http://www.bom.gov.au/fwo/IDQ60701/IDQ60701.94592.json